Time;durP1;ratioP1;P1;durP2;ratioP2;P2;SDS_P1;SDS_P2;PMS_P1;PMS_P2;Temp;Humidity;BMP_temperature;BMP_pressure;BME280_temperature;BME280_humidity;BME280_pressure;Samples;Min_cycle;Max_cycle;Signal;HPM_P1;HPM_P2
2021/08/16 00:02:05;;;;;;;18.52;5.57;;;19.60;99.90;;;;;;5035884;28;20519;-56
2021/08/16 00:04:31;;;;;;;12.48;5.15;;;19.50;99.90;;;;;;5034198;28;20040;-61
2021/08/16 00:06:57;;;;;;;11.85;5.03;;;19.50;99.90;;;;;;5036253;28;20029;-56
2021/08/16 00:09:22;;;;;;;8.80;4.35;;;19.40;99.90;;;;;;5036302;28;20059;-58
2021/08/16 00:11:48;;;;;;;21.40;5.13;;;19.30;99.90;;;;;;5035521;28;20017;-59
2021/08/16 00:14:13;;;;;;;10.88;5.20;;;19.30;99.90;;;;;;5035478;28;20601;-57
2021/08/16 00:16:39;;;;;;;10.48;4.35;;;19.30;99.90;;;;;;5036065;28;20029;-58
2021/08/16 00:19:04;;;;;;;9.23;3.75;;;19.20;99.90;;;;;;5034337;28;20051;-59
2021/08/16 00:21:30;;;;;;;7.82;4.22;;;19.10;99.90;;;;;;5054598;22;20048;-59
2021/08/16 00:23:55;;;;;;;10.45;3.90;;;19.10;99.90;;;;;;5037232;28;20505;-56
2021/08/16 00:26:21;;;;;;;6.50;2.95;;;19.10;99.90;;;;;;5035580;28;20026;-57
2021/08/16 00:28:47;;;;;;;6.75;3.53;;;19.00;99.90;;;;;;5035169;28;20049;-57
2021/08/16 00:31:12;;;;;;;6.57;3.15;;;18.90;99.90;;;;;;5031387;28;20029;-59
2021/08/16 00:33:38;;;;;;;7.97;2.92;;;18.80;99.90;;;;;;5034546;28;20033;-57
2021/08/16 00:36:03;;;;;;;8.25;2.67;;;18.80;99.90;;;;;;5032804;28;20029;-59
2021/08/16 00:38:30;;;;;;;9.48;3.35;;;18.70;99.90;;;;;;5029893;28;20112;-59
2021/08/16 00:40:55;;;;;;;9.95;2.70;;;18.60;99.90;;;;;;5035062;28;20725;-59
2021/08/16 00:43:21;;;;;;;12.90;2.60;;;18.60;99.90;;;;;;5032662;28;20111;-58
2021/08/16 00:45:47;;;;;;;11.48;3.33;;;18.40;99.90;;;;;;5035179;28;20036;-58
2021/08/16 00:48:13;;;;;;;12.95;2.53;;;18.40;99.90;;;;;;5032494;28;20397;-57
2021/08/16 00:50:39;;;;;;;9.88;3.33;;;18.30;99.90;;;;;;5032867;28;20132;-61
2021/08/16 00:53:05;;;;;;;6.68;2.65;;;18.30;99.90;;;;;;5030675;28;20029;-58
2021/08/16 00:55:31;;;;;;;10.63;2.75;;;18.20;99.90;;;;;;5031000;28;20029;-59
2021/08/16 00:57:58;;;;;;;13.75;3.10;;;18.10;99.90;;;;;;5035142;28;20067;-59
2021/08/16 01:00:24;;;;;;;12.60;2.58;;;18.00;99.90;;;;;;5032353;28;20032;-59
2021/08/16 01:02:50;;;;;;;11.68;2.60;;;18.00;99.90;;;;;;5033388;28;20488;-57
2021/08/16 01:05:16;;;;;;;11.65;2.47;;;17.90;99.90;;;;;;5032963;28;20021;-59
2021/08/16 01:07:44;;;;;;;11.02;2.92;;;17.90;99.90;;;;;;5033961;28;20021;-58
2021/08/16 01:10:10;;;;;;;15.30;2.70;;;17.90;99.90;;;;;;5030128;28;20460;-56
2021/08/16 01:12:37;;;;;;;6.25;2.90;;;17.70;99.90;;;;;;5027123;28;20108;-59
2021/08/16 01:15:07;;;;;;;16.00;2.47;;;17.70;99.90;;;;;;5036189;28;20032;-58
2021/08/16 01:17:34;;;;;;;10.18;2.28;;;17.60;99.90;;;;;;5033633;28;20071;-58
2021/08/16 01:20:01;;;;;;;10.95;2.38;;;17.60;99.90;;;;;;5031263;28;20029;-56
2021/08/16 01:22:26;;;;;;;17.02;2.83;;;17.50;99.90;;;;;;5031091;28;20061;-58
2021/08/16 01:24:52;;;;;;;10.48;2.28;;;17.40;99.90;;;;;;5030481;28;20072;-59
2021/08/16 01:27:18;;;;;;;8.88;2.38;;;17.40;99.90;;;;;;5030388;28;20037;-62
2021/08/16 01:29:43;;;;;;;13.63;2.13;;;17.40;99.90;;;;;;5034219;28;20551;-58
2021/08/16 01:32:09;;;;;;;5.80;1.70;;;17.30;99.90;;;;;;5037680;28;20532;-61
2021/08/16 01:34:35;;;;;;;6.90;2.03;;;17.20;99.90;;;;;;5035844;28;20017;-59
2021/08/16 01:37:01;;;;;;;7.95;2.10;;;17.20;99.90;;;;;;5035469;28;20017;-60
2021/08/16 01:39:28;;;;;;;11.05;2.05;;;17.10;99.90;;;;;;5031178;28;20026;-59
2021/08/16 01:41:54;;;;;;;9.68;2.03;;;17.10;99.90;;;;;;5027501;28;20968;-59
2021/08/16 01:44:22;;;;;;;16.15;2.35;;;17.00;99.90;;;;;;5034986;28;20043;-57
2021/08/16 01:46:49;;;;;;;9.30;2.10;;;17.00;99.90;;;;;;5034395;28;20041;-58
2021/08/16 01:49:15;;;;;;;10.90;1.90;;;16.90;99.90;;;;;;5029868;28;20412;-61
2021/08/16 01:51:41;;;;;;;7.40;2.20;;;17.00;99.90;;;;;;5034417;28;20216;-59
2021/08/16 01:54:10;;;;;;;9.48;2.45;;;17.00;99.90;;;;;;5032048;28;20116;-58
2021/08/16 01:56:37;;;;;;;7.45;1.70;;;16.90;99.90;;;;;;5034721;28;20029;-55
2021/08/16 01:59:03;;;;;;;5.22;1.92;;;17.00;99.90;;;;;;5032671;28;20035;-58
2021/08/16 02:01:28;;;;;;;8.57;2.45;;;17.00;99.90;;;;;;5032717;28;20294;-56
2021/08/16 02:03:54;;;;;;;10.73;1.70;;;17.00;99.90;;;;;;5031353;28;20029;-58
2021/08/16 02:06:20;;;;;;;14.23;1.95;;;17.00;99.90;;;;;;5035434;28;20029;-58
2021/08/16 02:08:46;;;;;;;4.60;1.52;;;16.90;99.90;;;;;;5031615;28;20163;-58
2021/08/16 02:11:11;;;;;;;6.35;1.65;;;16.80;99.90;;;;;;5027913;28;20128;-60
2021/08/16 02:13:37;;;;;;;9.65;1.80;;;16.80;99.90;;;;;;5028997;28;20492;-58
2021/08/16 02:16:04;;;;;;;6.13;1.85;;;16.80;99.90;;;;;;5034188;28;20480;-59
2021/08/16 02:18:30;;;;;;;6.90;2.20;;;16.80;99.90;;;;;;5033675;28;20082;-59
2021/08/16 02:20:55;;;;;;;7.38;2.08;;;16.90;99.90;;;;;;5030532;28;20037;-59
2021/08/16 02:23:21;;;;;;;6.88;1.90;;;16.80;99.90;;;;;;5032369;28;20031;-59
2021/08/16 02:25:46;;;;;;;11.15;2.00;;;16.70;99.90;;;;;;5030553;28;20037;-59
2021/08/16 02:28:16;;;;;;;9.50;2.20;;;16.70;99.90;;;;;;5035005;28;20036;-58
2021/08/16 02:30:42;;;;;;;10.38;2.20;;;16.70;99.90;;;;;;5030678;28;20813;-59
2021/08/16 02:33:07;;;;;;;7.32;1.60;;;16.60;99.90;;;;;;5034912;28;20060;-60
2021/08/16 02:35:33;;;;;;;7.20;2.08;;;16.60;99.90;;;;;;5033807;28;20045;-57
2021/08/16 02:37:58;;;;;;;6.30;2.03;;;16.60;99.90;;;;;;5033918;28;20079;-59
2021/08/16 02:40:24;;;;;;;5.22;2.00;;;16.50;99.90;;;;;;5030047;28;20029;-60
2021/08/16 02:42:50;;;;;;;7.00;2.05;;;16.50;99.90;;;;;;5033239;28;20025;-59
2021/08/16 02:45:15;;;;;;;6.40;1.63;;;16.60;99.90;;;;;;5031209;28;20021;-59
2021/08/16 02:47:41;;;;;;;6.45;2.58;;;16.60;99.90;;;;;;5028834;28;20029;-60
2021/08/16 02:50:07;;;;;;;11.05;2.00;;;16.60;99.90;;;;;;5033991;28;20413;-58
2021/08/16 02:52:33;;;;;;;15.65;2.60;;;16.60;99.90;;;;;;5032723;28;20118;-57
2021/08/16 02:54:59;;;;;;;9.55;1.83;;;16.60;99.90;;;;;;5031025;28;20048;-58
2021/08/16 02:57:25;;;;;;;7.05;2.00;;;16.60;99.90;;;;;;5032549;28;20099;-55
2021/08/16 02:59:50;;;;;;;7.32;2.20;;;16.60;99.90;;;;;;5029632;28;20465;-59
2021/08/16 03:02:16;;;;;;;6.68;1.70;;;16.60;99.90;;;;;;5030386;28;20068;-58
2021/08/16 03:04:41;;;;;;;6.30;2.05;;;16.60;99.90;;;;;;5029758;28;20121;-56
2021/08/16 03:07:07;;;;;;;7.82;2.05;;;16.60;99.90;;;;;;5032957;28;20043;-58
2021/08/16 03:09:33;;;;;;;5.32;1.98;;;16.50;99.90;;;;;;5032933;28;20028;-58
2021/08/16 03:11:58;;;;;;;10.63;2.38;;;16.60;99.90;;;;;;5027493;28;20406;-59
2021/08/16 03:14:24;;;;;;;12.05;2.45;;;16.60;99.90;;;;;;5030928;28;20033;-58
2021/08/16 03:16:50;;;;;;;7.15;1.70;;;16.70;99.90;;;;;;5030355;28;20373;-58
2021/08/16 03:19:16;;;;;;;7.68;2.00;;;16.70;99.90;;;;;;5031011;28;20420;-55
2021/08/16 03:21:41;;;;;;;9.45;2.88;;;16.70;99.90;;;;;;5032643;28;20489;-58
2021/08/16 03:24:07;;;;;;;12.15;2.70;;;16.70;99.90;;;;;;5031608;28;20468;-57
2021/08/16 03:26:33;;;;;;;14.07;2.28;;;16.60;99.90;;;;;;5034625;28;20091;-59
2021/08/16 03:28:58;;;;;;;5.28;2.13;;;16.60;99.90;;;;;;5034478;28;20048;-57
2021/08/16 03:31:24;;;;;;;6.22;2.03;;;16.60;99.90;;;;;;5030463;28;20520;-58
2021/08/16 03:33:49;;;;;;;7.75;1.88;;;16.60;99.90;;;;;;5036113;28;20160;-56
2021/08/16 03:36:15;;;;;;;11.85;2.33;;;16.70;99.90;;;;;;5030583;28;20029;-56
2021/08/16 03:38:40;;;;;;;6.15;1.98;;;16.70;99.90;;;;;;5031845;28;20029;-56
2021/08/16 03:41:06;;;;;;;6.68;1.95;;;16.60;99.90;;;;;;5028974;28;20461;-57
2021/08/16 03:43:32;;;;;;;8.07;2.30;;;16.60;99.90;;;;;;5031867;28;20485;-58
2021/08/16 03:45:58;;;;;;;8.77;1.75;;;16.60;99.90;;;;;;5032258;28;20132;-59
2021/08/16 03:48:24;;;;;;;8.35;1.90;;;16.60;99.90;;;;;;5028341;28;20042;-56
2021/08/16 03:50:49;;;;;;;9.77;2.63;;;16.70;99.90;;;;;;5030155;28;20029;-56
2021/08/16 03:53:16;;;;;;;9.85;2.30;;;16.70;99.90;;;;;;5032607;28;20543;-59
2021/08/16 03:55:41;;;;;;;14.43;2.20;;;16.70;99.90;;;;;;5030976;28;20033;-59
2021/08/16 03:58:08;;;;;;;8.93;1.83;;;16.70;99.90;;;;;;5029936;28;20504;-58
2021/08/16 04:00:33;;;;;;;8.30;1.98;;;16.70;99.90;;;;;;5033725;28;20040;-58
2021/08/16 04:02:59;;;;;;;8.60;2.47;;;16.70;99.90;;;;;;5031452;28;20037;-59
2021/08/16 04:05:25;;;;;;;8.50;2.00;;;16.70;99.90;;;;;;5032059;28;20492;-56
2021/08/16 04:07:50;;;;;;;10.73;2.25;;;16.70;99.90;;;;;;5035432;28;20451;-57
2021/08/16 04:10:17;;;;;;;17.98;2.17;;;16.70;99.90;;;;;;5034145;28;20018;-59
2021/08/16 04:12:43;;;;;;;9.68;2.10;;;16.70;99.90;;;;;;5027289;28;20037;-56
2021/08/16 04:15:12;;;;;;;13.13;2.33;;;16.70;99.90;;;;;;5029137;28;20450;-58
2021/08/16 04:17:38;;;;;;;13.27;2.42;;;16.80;99.90;;;;;;5031571;28;20033;-58
2021/08/16 04:20:05;;;;;;;15.82;2.85;;;16.80;99.90;;;;;;5031272;28;20033;-58
2021/08/16 04:22:30;;;;;;;11.93;2.45;;;16.80;99.90;;;;;;5033276;28;20036;-57
2021/08/16 04:24:56;;;;;;;11.43;2.45;;;16.80;99.90;;;;;;5033269;28;20484;-58
2021/08/16 04:27:22;;;;;;;14.60;2.30;;;16.80;99.90;;;;;;5041857;28;20159;-59
2021/08/16 04:29:47;;;;;;;10.13;1.95;;;16.90;99.90;;;;;;5035181;28;20029;-57
2021/08/16 04:32:13;;;;;;;12.45;2.35;;;16.90;99.90;;;;;;5035410;28;20029;-57
2021/08/16 04:34:38;;;;;;;7.05;1.98;;;16.90;99.90;;;;;;5034371;28;20035;-59
2021/08/16 04:37:04;;;;;;;8.95;2.80;;;16.90;99.90;;;;;;5030076;28;20029;-59
2021/08/16 04:39:30;;;;;;;12.95;3.20;;;16.90;99.90;;;;;;5034008;28;20022;-58
2021/08/16 04:41:55;;;;;;;9.57;2.55;;;16.90;99.90;;;;;;5034002;28;20472;-59
2021/08/16 04:44:21;;;;;;;12.65;2.35;;;16.90;99.90;;;;;;5036224;28;20030;-59
2021/08/16 04:46:47;;;;;;;8.20;2.72;;;16.90;99.90;;;;;;5034456;28;20107;-59
2021/08/16 04:49:12;;;;;;;11.65;2.80;;;16.90;99.90;;;;;;5037802;28;20195;-59
2021/08/16 04:51:38;;;;;;;7.35;2.28;;;16.90;99.90;;;;;;5037046;28;20046;-59
2021/08/16 04:54:04;;;;;;;8.20;2.28;;;16.90;99.90;;;;;;5032889;28;20025;-59
2021/08/16 04:56:30;;;;;;;12.95;2.58;;;16.80;99.90;;;;;;5037304;28;20032;-58
2021/08/16 04:58:57;;;;;;;7.32;2.05;;;16.90;99.90;;;;;;5034573;28;20389;-59
2021/08/16 05:01:23;;;;;;;8.70;2.88;;;16.90;99.90;;;;;;5032192;28;20025;-57
2021/08/16 05:03:49;;;;;;;12.30;2.42;;;16.90;99.90;;;;;;5036175;28;20029;-59
2021/08/16 05:06:14;;;;;;;13.18;2.60;;;16.90;99.90;;;;;;5036353;28;20420;-58
2021/08/16 05:08:40;;;;;;;12.25;2.92;;;16.90;99.90;;;;;;5037086;28;20091;-59
2021/08/16 05:11:05;;;;;;;16.33;2.75;;;16.80;99.90;;;;;;5034829;28;20168;-58
2021/08/16 05:13:31;;;;;;;13.95;2.53;;;16.80;99.90;;;;;;5036927;28;20197;-58
2021/08/16 05:15:57;;;;;;;11.20;2.92;;;16.90;99.90;;;;;;5035636;28;20032;-57
2021/08/16 05:18:23;;;;;;;9.80;2.30;;;16.90;99.90;;;;;;5034672;28;20484;-57
2021/08/16 05:20:49;;;;;;;9.80;2.67;;;16.90;99.90;;;;;;5041581;28;20051;-60
2021/08/16 05:23:20;;;;;;;7.50;2.08;;;16.90;99.90;;;;;;5032280;28;20052;-60
2021/08/16 05:25:46;;;;;;;10.50;2.55;;;17.00;99.90;;;;;;5032067;28;20041;-58
2021/08/16 05:28:12;;;;;;;13.23;2.85;;;16.90;99.90;;;;;;5035860;28;20033;-58
2021/08/16 05:30:37;;;;;;;12.52;2.58;;;17.00;99.90;;;;;;5032302;28;20033;-59
2021/08/16 05:33:03;;;;;;;6.47;2.80;;;17.00;99.90;;;;;;5031214;28;20104;-57
2021/08/16 05:35:28;;;;;;;14.82;2.85;;;16.90;99.90;;;;;;5029805;28;20424;-58
2021/08/16 05:37:55;;;;;;;14.13;2.97;;;17.00;99.90;;;;;;5032929;28;20098;-56
2021/08/16 05:40:21;;;;;;;11.63;2.95;;;17.10;99.90;;;;;;5037724;28;20056;-57
2021/08/16 05:42:46;;;;;;;20.33;3.08;;;17.00;99.90;;;;;;5036529;28;20020;-60
2021/08/16 05:45:12;;;;;;;11.40;3.00;;;17.00;99.90;;;;;;5031903;28;20078;-58
2021/08/16 05:47:38;;;;;;;13.10;3.22;;;17.10;99.90;;;;;;5035881;28;20163;-60
2021/08/16 05:50:05;;;;;;;11.10;3.80;;;17.10;99.90;;;;;;5033877;28;20119;-56
2021/08/16 05:52:31;;;;;;;18.15;3.25;;;17.10;99.90;;;;;;5030077;28;20033;-57
2021/08/16 05:54:56;;;;;;;10.45;2.92;;;17.10;99.90;;;;;;5035987;28;20074;-61
2021/08/16 05:57:22;;;;;;;10.23;2.70;;;17.10;99.90;;;;;;5033116;28;20025;-56
2021/08/16 05:59:48;;;;;;;12.88;3.10;;;17.10;99.90;;;;;;5030114;28;20067;-61
2021/08/16 06:02:13;;;;;;;13.18;3.38;;;17.10;99.90;;;;;;5034332;28;20077;-59
2021/08/16 06:04:38;;;;;;;15.52;3.13;;;17.10;99.90;;;;;;5028226;28;20508;-58
2021/08/16 06:07:04;;;;;;;9.70;3.63;;;17.10;99.90;;;;;;5028753;28;20038;-59
2021/08/16 06:09:30;;;;;;;20.95;3.75;;;17.20;99.90;;;;;;5030770;28;20027;-59
2021/08/16 06:11:55;;;;;;;12.55;3.00;;;17.30;99.90;;;;;;5031112;28;20100;-58
2021/08/16 06:14:21;;;;;;;9.18;2.78;;;17.30;99.90;;;;;;5031707;28;20021;-59
2021/08/16 06:16:46;;;;;;;21.73;3.47;;;17.30;99.90;;;;;;5031693;28;20065;-56
2021/08/16 06:19:12;;;;;;;11.05;3.28;;;17.40;99.90;;;;;;5031738;28;20037;-59
2021/08/16 06:21:42;;;;;;;14.52;4.47;;;17.30;99.90;;;;;;5050541;22;20053;-61
2021/08/16 06:24:11;;;;;;;16.85;3.58;;;17.40;99.90;;;;;;5019690;28;20034;-61
2021/08/16 06:26:37;;;;;;;13.10;3.45;;;17.40;99.90;;;;;;5016678;28;20021;-60
2021/08/16 06:29:03;;;;;;;11.68;2.88;;;17.40;99.90;;;;;;5019595;28;20037;-60
2021/08/16 06:31:29;;;;;;;12.95;3.10;;;17.50;99.90;;;;;;5023816;28;20026;-60
2021/08/16 06:33:55;;;;;;;14.75;2.95;;;17.50;99.90;;;;;;5011666;28;20472;-61
2021/08/16 06:36:20;;;;;;;12.65;2.85;;;17.60;99.90;;;;;;5009992;28;20021;-61
2021/08/16 06:38:48;;;;;;;11.63;2.58;;;17.70;99.90;;;;;;5011791;28;20092;-62
2021/08/16 06:41:15;;;;;;;16.25;2.88;;;17.60;99.90;;;;;;5009393;28;20030;-61
2021/08/16 06:43:41;;;;;;;13.10;2.67;;;17.40;99.90;;;;;;5018611;28;20064;-61
2021/08/16 06:46:07;;;;;;;5.35;2.40;;;17.50;99.90;;;;;;5012833;28;20033;-61
2021/08/16 06:48:33;;;;;;;11.55;2.22;;;17.60;99.90;;;;;;5014888;28;20535;-61
2021/08/16 06:50:59;;;;;;;9.25;2.00;;;17.60;99.90;;;;;;5014726;28;20036;-61
2021/08/16 06:53:24;;;;;;;9.02;2.00;;;17.70;99.90;;;;;;5021025;28;20503;-61
2021/08/16 06:55:50;;;;;;;12.57;2.33;;;17.70;99.90;;;;;;5016631;28;20496;-61
2021/08/16 06:58:16;;;;;;;8.85;2.63;;;17.70;99.90;;;;;;5020184;28;20018;-61
2021/08/16 07:00:43;;;;;;;8.65;1.95;;;17.70;99.90;;;;;;5014288;28;20030;-59
2021/08/16 07:03:10;;;;;;;10.60;2.13;;;17.80;99.90;;;;;;5014956;28;20037;-61
2021/08/16 07:05:36;;;;;;;10.15;2.15;;;17.80;99.90;;;;;;5016300;28;20029;-61
2021/08/16 07:08:02;;;;;;;11.93;2.42;;;17.90;99.90;;;;;;5018112;28;20053;-60
2021/08/16 07:10:27;;;;;;;12.23;2.83;;;17.90;99.90;;;;;;5017520;28;20456;-61
2021/08/16 07:12:53;;;;;;;15.90;3.05;;;18.00;99.90;;;;;;5018664;28;20083;-61
2021/08/16 07:15:18;;;;;;;11.93;2.53;;;18.00;99.90;;;;;;5020234;28;20030;-61
2021/08/16 07:17:44;;;;;;;11.88;2.47;;;18.10;99.90;;;;;;5016440;28;20034;-61
2021/08/16 07:20:10;;;;;;;6.60;1.83;;;18.10;99.90;;;;;;5020490;28;20029;-60
2021/08/16 07:22:36;;;;;;;10.02;2.55;;;18.10;99.90;;;;;;5016583;28;20554;-61
2021/08/16 07:25:02;;;;;;;13.15;2.33;;;18.20;99.90;;;;;;5020018;28;20042;-60
2021/08/16 07:27:28;;;;;;;9.02;1.80;;;18.20;99.90;;;;;;5023502;28;20030;-60
2021/08/16 07:29:53;;;;;;;6.75;1.60;;;18.20;99.90;;;;;;5016664;28;20037;-61
2021/08/16 07:32:19;;;;;;;9.80;1.95;;;18.20;99.90;;;;;;5016544;28;20029;-62
2021/08/16 07:34:44;;;;;;;7.40;1.67;;;18.30;99.90;;;;;;5020237;28;20570;-60
2021/08/16 07:37:12;;;;;;;12.40;1.98;;;18.40;99.90;;;;;;5018955;28;20036;-61
2021/08/16 07:39:38;;;;;;;4.28;1.42;;;18.40;99.90;;;;;;5020978;28;20058;-61
2021/08/16 07:42:03;;;;;;;11.18;1.80;;;18.40;99.90;;;;;;5017865;28;20120;-62
2021/08/16 07:44:29;;;;;;;11.75;1.77;;;18.50;99.90;;;;;;5013596;28;20084;-61
2021/08/16 07:46:56;;;;;;;7.07;1.70;;;18.60;99.90;;;;;;5016556;28;20117;-59
2021/08/16 07:49:22;;;;;;;8.13;1.70;;;18.70;99.90;;;;;;5012373;28;20030;-61
2021/08/16 07:51:48;;;;;;;8.05;1.77;;;18.70;99.90;;;;;;5009426;28;20081;-62
2021/08/16 07:54:13;;;;;;;9.73;1.55;;;18.60;99.90;;;;;;5011133;28;20022;-61
2021/08/16 07:56:39;;;;;;;5.90;2.10;;;18.50;99.90;;;;;;5007181;28;20030;-62
2021/08/16 07:59:05;;;;;;;8.30;2.05;;;18.40;99.90;;;;;;5010775;28;20408;-63
2021/08/16 08:01:30;;;;;;;7.78;1.95;;;18.50;99.90;;;;;;5007587;28;20085;-63
2021/08/16 08:03:56;;;;;;;5.43;1.90;;;18.50;99.90;;;;;;5013482;28;20038;-60
2021/08/16 08:06:22;;;;;;;7.63;2.20;;;18.70;99.90;;;;;;5014604;28;20029;-62
2021/08/16 08:08:47;;;;;;;6.43;2.05;;;18.80;99.90;;;;;;5014662;28;20025;-63
2021/08/16 08:11:13;;;;;;;8.18;2.05;;;18.90;99.90;;;;;;5013994;28;20032;-63
2021/08/16 08:13:39;;;;;;;9.52;2.20;;;18.90;99.90;;;;;;5015280;28;20040;-60
2021/08/16 08:16:04;;;;;;;9.98;2.55;;;19.00;99.90;;;;;;5013856;28;20022;-63
2021/08/16 08:18:30;;;;;;;7.22;2.33;;;19.00;99.90;;;;;;5013452;28;20513;-61
2021/08/16 08:20:56;;;;;;;14.80;2.55;;;19.10;99.90;;;;;;5012412;28;20029;-61
2021/08/16 08:23:21;;;;;;;5.90;2.28;;;19.20;99.90;;;;;;5013724;28;20034;-62
2021/08/16 08:25:47;;;;;;;9.27;2.35;;;19.20;99.90;;;;;;5013064;28;20018;-61
2021/08/16 08:28:15;;;;;;;10.65;2.88;;;19.10;99.90;;;;;;5009637;28;20029;-62
2021/08/16 08:30:42;;;;;;;8.82;2.40;;;19.10;99.90;;;;;;5019630;28;20049;-61
2021/08/16 08:33:08;;;;;;;10.23;2.72;;;19.10;99.90;;;;;;5013086;28;20497;-61
2021/08/16 08:35:34;;;;;;;13.40;3.58;;;19.20;99.90;;;;;;5014084;28;20095;-61
2021/08/16 08:37:59;;;;;;;7.53;2.20;;;19.30;99.90;;;;;;5013690;28;20033;-60
2021/08/16 08:40:25;;;;;;;10.50;2.30;;;19.40;99.90;;;;;;5022451;28;20504;-61
2021/08/16 08:42:53;;;;;;;9.10;2.58;;;19.50;99.90;;;;;;5013954;28;20034;-62
2021/08/16 08:45:20;;;;;;;25.42;2.90;;;19.40;99.90;;;;;;5014542;28;20049;-61
2021/08/16 08:47:47;;;;;;;8.43;2.53;;;19.30;99.90;;;;;;5013897;28;20030;-60
2021/08/16 08:50:15;;;;;;;17.20;2.10;;;19.30;99.90;;;;;;5013896;28;20092;-61
2021/08/16 08:52:41;;;;;;;10.27;2.83;;;19.40;99.90;;;;;;5014342;28;20026;-58
2021/08/16 08:55:07;;;;;;;15.82;2.53;;;19.40;99.90;;;;;;5013063;28;20029;-55
2021/08/16 08:57:36;;;;;;;5.88;2.03;;;19.50;99.90;;;;;;5014215;28;20313;-58
2021/08/16 09:00:02;;;;;;;13.27;3.05;;;19.50;99.90;;;;;;5014118;28;20488;-62
2021/08/16 09:02:27;;;;;;;12.60;2.35;;;19.50;99.90;;;;;;5013740;28;20025;-61
2021/08/16 09:04:54;;;;;;;17.15;2.47;;;19.60;99.90;;;;;;5014085;28;20057;-60
2021/08/16 09:07:35;;;;;;;10.85;3.20;;;19.70;99.90;;;;;;5012697;28;20029;-61
2021/08/16 09:10:22;;;;;;;8.05;2.33;;;19.80;99.90;;;;;;5009287;28;20033;-61
2021/08/16 09:12:48;;;;;;;8.02;2.60;;;19.80;99.90;;;;;;5012595;28;20030;-59
2021/08/16 09:15:17;;;;;;;7.18;2.35;;;19.90;99.90;;;;;;5013660;28;20037;-60
2021/08/16 09:17:43;;;;;;;13.18;2.60;;;20.00;99.90;;;;;;5013834;28;20481;-61
2021/08/16 09:20:21;;;;;;;5.70;1.73;;;20.20;99.90;;;;;;5013213;28;20034;-61
2021/08/16 09:22:59;;;;;;;6.40;2.15;;;20.30;99.90;;;;;;5013106;28;20109;-60
2021/08/16 09:25:26;;;;;;;15.30;2.63;;;20.50;99.90;;;;;;5013456;28;20034;-61
2021/08/16 09:27:52;;;;;;;10.55;2.40;;;20.30;99.90;;;;;;5013669;28;20041;-61
2021/08/16 09:30:35;;;;;;;10.23;2.65;;;20.30;99.90;;;;;;5012682;28;20025;-59
2021/08/16 09:33:11;;;;;;;12.52;2.22;;;20.20;99.90;;;;;;5009788;28;20033;-61
2021/08/16 09:35:52;;;;;;;12.27;2.30;;;20.30;99.90;;;;;;5013289;28;20022;-62
2021/08/16 09:38:17;;;;;;;7.15;2.28;;;20.40;99.90;;;;;;5012916;28;20056;-61
2021/08/16 09:40:43;;;;;;;7.43;2.17;;;20.50;99.90;;;;;;5012767;28;20057;-61
2021/08/16 09:43:09;;;;;;;7.85;2.20;;;20.60;99.90;;;;;;5013185;28;20034;-59
2021/08/16 09:45:38;;;;;;;7.65;1.85;;;20.30;99.90;;;;;;5013325;28;20056;-61
2021/08/16 09:48:07;;;;;;;7.57;1.92;;;20.30;99.90;;;;;;5010519;28;20038;-61
2021/08/16 09:50:41;;;;;;;16.27;2.80;;;20.20;99.90;;;;;;5019159;28;20028;-59
2021/08/16 09:53:12;;;;;;;9.07;1.92;;;20.20;99.90;;;;;;5018601;28;20371;-56
2021/08/16 09:55:42;;;;;;;15.13;2.10;;;20.30;99.90;;;;;;5023166;28;20030;-59
2021/08/16 09:58:13;;;;;;;5.57;1.95;;;20.40;99.90;;;;;;5022272;28;20026;-60
2021/08/16 10:00:39;;;;;;;7.97;1.60;;;20.50;99.90;;;;;;5024022;28;20508;-60
2021/08/16 10:03:07;;;;;;;15.50;2.00;;;20.40;99.90;;;;;;5021197;28;20057;-60
2021/08/16 10:05:36;;;;;;;8.88;2.60;;;20.40;99.90;;;;;;5018701;28;20069;-60
2021/08/16 10:08:06;;;;;;;7.00;2.03;;;20.30;99.90;;;;;;5015019;28;20121;-62
2021/08/16 10:10:33;;;;;;;8.02;2.38;;;20.50;99.90;;;;;;5020548;28;20040;-59
2021/08/16 10:13:00;;;;;;;13.50;2.85;;;20.40;99.90;;;;;;5021435;28;20041;-61
2021/08/16 10:15:27;;;;;;;8.40;2.58;;;20.30;99.90;;;;;;5024895;28;20013;-61
2021/08/16 10:17:53;;;;;;;8.75;2.00;;;20.50;99.90;;;;;;5023867;28;20028;-61
2021/08/16 10:20:19;;;;;;;10.52;2.58;;;20.90;99.90;;;;;;5021281;28;20026;-61
2021/08/16 10:22:45;;;;;;;10.52;2.63;;;21.00;99.90;;;;;;5021276;28;20065;-60
2021/08/16 10:25:16;;;;;;;12.52;3.47;;;20.90;99.90;;;;;;5020556;28;20493;-59
2021/08/16 10:27:42;;;;;;;11.07;3.05;;;20.70;99.90;;;;;;5018128;28;20037;-61
2021/08/16 10:30:13;;;;;;;6.65;2.40;;;20.70;99.90;;;;;;5019624;28;20364;-59
2021/08/16 10:32:39;;;;;;;8.05;2.58;;;20.70;99.90;;;;;;5019669;28;20033;-59
2021/08/16 10:35:16;;;;;;;7.18;2.15;;;20.70;99.90;;;;;;5019208;28;20033;-58
2021/08/16 10:37:44;;;;;;;10.65;2.25;;;20.60;99.90;;;;;;5021645;28;20104;-61
2021/08/16 10:40:14;;;;;;;11.10;2.83;;;21.10;99.90;;;;;;5018410;28;20055;-61
2021/08/16 10:42:40;;;;;;;12.40;2.92;;;21.20;99.90;;;;;;5017345;28;20033;-60
2021/08/16 10:45:07;;;;;;;11.82;2.92;;;21.20;99.90;;;;;;5024845;28;20037;-59
2021/08/16 10:47:34;;;;;;;7.88;2.40;;;21.20;99.90;;;;;;5018095;28;20045;-61
2021/08/16 10:50:03;;;;;;;13.40;2.88;;;21.00;99.90;;;;;;5017288;28;20514;-60
2021/08/16 10:52:29;;;;;;;8.13;2.45;;;21.00;99.90;;;;;;5020974;28;20029;-60
2021/08/16 10:54:54;;;;;;;8.00;2.53;;;20.80;99.90;;;;;;5024402;28;20040;-62
2021/08/16 10:57:20;;;;;;;7.82;2.97;;;20.70;99.90;;;;;;5000535;28;20040;-62
2021/08/16 10:59:46;;;;;;;11.50;2.70;;;20.80;99.90;;;;;;5007125;28;20057;-60
2021/08/16 11:02:11;;;;;;;9.70;2.28;;;20.70;99.90;;;;;;5012692;28;20052;-61
2021/08/16 11:04:40;;;;;;;12.88;2.53;;;20.70;99.90;;;;;;5017182;28;20538;-62
2021/08/16 11:07:07;;;;;;;17.70;4.00;;;20.40;99.90;;;;;;5011033;28;20069;-62
2021/08/16 11:09:38;;;;;;;14.70;3.30;;;20.40;99.90;;;;;;5011137;28;20025;-63
2021/08/16 11:12:07;;;;;;;10.07;3.13;;;20.30;99.90;;;;;;5011940;28;20025;-58
2021/08/16 11:14:35;;;;;;;11.30;3.40;;;20.00;99.90;;;;;;5022432;28;20022;-61
2021/08/16 11:17:02;;;;;;;11.18;3.28;;;19.40;99.90;;;;;;5015527;28;20036;-64
2021/08/16 11:19:46;;;;;;;6.25;2.83;;;19.10;99.90;;;;;;5005128;28;20030;-63
2021/08/16 11:22:13;;;;;;;12.32;3.35;;;18.90;99.90;;;;;;5005729;28;20058;-64
2021/08/16 11:24:44;;;;;;;6.68;3.10;;;18.90;99.90;;;;;;5008826;28;20030;-63
2021/08/16 11:27:16;;;;;;;10.88;2.95;;;19.10;99.90;;;;;;5009793;28;20022;-63
2021/08/16 11:29:55;;;;;;;8.98;3.08;;;19.10;99.90;;;;;;5011709;28;20125;-65
2021/08/16 11:32:28;;;;;;;11.85;2.85;;;19.10;99.90;;;;;;5011534;28;20083;-63
2021/08/16 11:34:55;;;;;;;15.65;3.22;;;19.10;99.90;;;;;;5010293;28;20117;-63
2021/08/16 11:37:26;;;;;;;7.60;2.97;;;19.10;99.90;;;;;;5024828;28;20060;-62
2021/08/16 11:39:53;;;;;;;11.63;2.50;;;18.90;99.90;;;;;;5008074;28;20026;-63
2021/08/16 11:42:20;;;;;;;8.82;2.80;;;18.40;99.90;;;;;;5009998;28;20037;-63
2021/08/16 11:45:03;;;;;;;5.72;2.00;;;18.00;99.90;;;;;;5011175;28;20026;-64
2021/08/16 11:47:29;;;;;;;4.85;2.33;;;17.60;99.90;;;;;;5017491;28;20501;-65
2021/08/16 11:50:07;;;;;;;6.03;2.60;;;17.50;99.90;;;;;;5010149;28;20076;-64
2021/08/16 11:52:34;;;;;;;9.07;2.85;;;17.30;99.90;;;;;;5008906;28;20054;-66
2021/08/16 11:55:00;;;;;;;7.05;3.50;;;17.30;99.90;;;;;;5009599;28;20037;-66
2021/08/16 11:57:26;;;;;;;6.80;4.40;;;17.20;99.90;;;;;;5011260;28;20022;-66
2021/08/16 11:59:56;;;;;;;4.68;3.95;;;17.10;99.90;;;;;;5007193;28;20033;-66
2021/08/16 12:02:24;;;;;;;8.07;4.80;;;17.10;99.90;;;;;;5025701;28;20037;-67
2021/08/16 12:04:52;;;;;;;8.00;4.97;;;17.10;99.90;;;;;;5010718;28;20575;-64
2021/08/16 12:07:22;;;;;;;10.43;6.53;;;17.00;99.90;;;;;;5013792;28;20096;-64
2021/08/16 12:09:48;;;;;;;8.93;5.90;;;17.00;99.90;;;;;;5009751;28;20030;-66
2021/08/16 12:12:19;;;;;;;7.78;5.20;;;17.10;99.90;;;;;;5010542;28;20060;-64
2021/08/16 12:14:45;;;;;;;8.65;5.82;;;17.10;99.90;;;;;;5010618;28;20032;-64
2021/08/16 12:17:23;;;;;;;9.63;5.72;;;17.10;99.90;;;;;;5010250;28;20030;-65
2021/08/16 12:20:03;;;;;;;11.32;7.40;;;17.20;99.90;;;;;;5010403;28;20050;-64
2021/08/16 12:22:30;;;;;;;11.35;6.53;;;17.00;99.90;;;;;;5048888;23;20044;-56
2021/08/16 12:25:05;;;;;;;10.38;6.53;;;16.90;99.90;;;;;;5058194;28;20417;-58
2021/08/16 12:27:31;;;;;;;12.25;7.57;;;16.70;99.90;;;;;;5052461;28;20518;-59
2021/08/16 12:29:57;;;;;;;11.90;7.03;;;16.70;99.90;;;;;;5062672;28;20033;-59
2021/08/16 12:32:30;;;;;;;10.95;7.65;;;16.60;99.90;;;;;;5049736;28;20021;-59
2021/08/16 12:34:58;;;;;;;16.63;8.07;;;16.50;99.90;;;;;;5019964;28;20032;-58
2021/08/16 12:37:26;;;;;;;18.70;7.22;;;16.30;99.90;;;;;;5037597;28;20030;-61
2021/08/16 12:39:52;;;;;;;16.45;8.20;;;16.20;99.90;;;;;;5044856;28;20112;-62